sensor_id;sensor_type;location;lat;lon;timestamp;pressure;altitude;pressure_sealevel;temperature
22269;BMP280;11303;50.772;19.670;2024-03-29T00:01:48;97415.69;;;5.82
22269;BMP280;11303;50.772;19.670;2024-03-29T00:03:48;97406.09;;;5.83
22269;BMP280;11303;50.772;19.670;2024-03-29T00:05:49;97412.00;;;5.83
22269;BMP280;11303;50.772;19.670;2024-03-29T00:07:49;97406.84;;;5.83
22269;BMP280;11303;50.772;19.670;2024-03-29T00:09:50;97402.78;;;5.82
22269;BMP280;11303;50.772;19.670;2024-03-29T00:11:51;97396.84;;;5.82
22269;BMP280;11303;50.772;19.670;2024-03-29T00:13:51;97392.06;;;5.80
22269;BMP280;11303;50.772;19.670;2024-03-29T00:15:52;97387.25;;;5.79
22269;BMP280;11303;50.772;19.670;2024-03-29T00:17:52;97384.75;;;5.82
22269;BMP280;11303;50.772;19.670;2024-03-29T00:19:53;97396.53;;;5.83
22269;BMP280;11303;50.772;19.670;2024-03-29T00:21:53;97396.53;;;5.83
22269;BMP280;11303;50.772;19.670;2024-03-29T00:23:54;97400.63;;;5.84
22269;BMP280;11303;50.772;19.670;2024-03-29T00:25:54;97409.00;;;5.81
22269;BMP280;11303;50.772;19.670;2024-03-29T00:27:58;97403.16;;;5.81
22269;BMP280;11303;50.772;19.670;2024-03-29T00:29:59;97405.94;;;5.76
22269;BMP280;11303;50.772;19.670;2024-03-29T00:31:59;97402.13;;;5.69
22269;BMP280;11303;50.772;19.670;2024-03-29T00:34:00;97404.63;;;5.66
22269;BMP280;11303;50.772;19.670;2024-03-29T00:36:01;97421.19;;;5.65
22269;BMP280;11303;50.772;19.670;2024-03-29T00:38:02;97424.44;;;5.62
22269;BMP280;11303;50.772;19.670;2024-03-29T00:40:03;97429.59;;;5.62
22269;BMP280;11303;50.772;19.670;2024-03-29T00:42:04;97436.50;;;5.58
22269;BMP280;11303;50.772;19.670;2024-03-29T00:44:09;97436.19;;;5.59
22269;BMP280;11303;50.772;19.670;2024-03-29T00:46:09;97445.06;;;5.62
22269;BMP280;11303;50.772;19.670;2024-03-29T00:48:10;97451.31;;;5.61
22269;BMP280;11303;50.772;19.670;2024-03-29T00:50:11;97455.03;;;5.63
22269;BMP280;11303;50.772;19.670;2024-03-29T00:52:11;97455.03;;;5.63
22269;BMP280;11303;50.772;19.670;2024-03-29T00:54:12;97463.88;;;5.62
22269;BMP280;11303;50.772;19.670;2024-03-29T00:56:15;97460.53;;;5.62
22269;BMP280;11303;50.772;19.670;2024-03-29T00:58:16;97461.63;;;5.61
22269;BMP280;11303;50.772;19.670;2024-03-29T01:00:16;97474.50;;;5.61
22269;BMP280;11303;50.772;19.670;2024-03-29T01:02:17;97478.47;;;5.58
22269;BMP280;11303;50.772;19.670;2024-03-29T01:04:17;97488.78;;;5.58
22269;BMP280;11303;50.772;19.670;2024-03-29T01:06:19;97488.72;;;5.55
22269;BMP280;11303;50.772;19.670;2024-03-29T01:08:20;97504.84;;;5.51
22269;BMP280;11303;50.772;19.670;2024-03-29T01:10:21;97518.78;;;5.50
22269;BMP280;11303;50.772;19.670;2024-03-29T01:12:23;97512.41;;;5.44
22269;BMP280;11303;50.772;19.670;2024-03-29T01:14:23;97514.88;;;5.41
22269;BMP280;11303;50.772;19.670;2024-03-29T01:16:24;97521.34;;;5.35
22269;BMP280;11303;50.772;19.670;2024-03-29T01:18:24;97532.97;;;5.28
22269;BMP280;11303;50.772;19.670;2024-03-29T01:20:25;97529.88;;;5.23
22269;BMP280;11303;50.772;19.670;2024-03-29T01:22:26;97538.16;;;5.16
22269;BMP280;11303;50.772;19.670;2024-03-29T01:24:26;97545.06;;;5.12
22269;BMP280;11303;50.772;19.670;2024-03-29T01:26:27;97549.69;;;5.06
22269;BMP280;11303;50.772;19.670;2024-03-29T01:28:27;97548.84;;;5.02
22269;BMP280;11303;50.772;19.670;2024-03-29T01:30:28;97565.69;;;5.00
22269;BMP280;11303;50.772;19.670;2024-03-29T01:32:28;97563.69;;;4.93
22269;BMP280;11303;50.772;19.670;2024-03-29T01:34:29;97571.00;;;4.91
22269;BMP280;11303;50.772;19.670;2024-03-29T01:36:30;97578.28;;;4.89
22269;BMP280;11303;50.772;19.670;2024-03-29T01:38:30;97571.72;;;4.91
22269;BMP280;11303;50.772;19.670;2024-03-29T01:40:31;97577.09;;;4.86
22269;BMP280;11303;50.772;19.670;2024-03-29T01:42:32;97584.50;;;4.88
22269;BMP280;11303;50.772;19.670;2024-03-29T01:44:32;97588.16;;;4.87
22269;BMP280;11303;50.772;19.670;2024-03-29T01:46:35;97594.50;;;4.89
22269;BMP280;11303;50.772;19.670;2024-03-29T01:48:37;97593.06;;;4.92
22269;BMP280;11303;50.772;19.670;2024-03-29T01:50:37;97602.00;;;4.94
22269;BMP280;11303;50.772;19.670;2024-03-29T01:52:39;97603.19;;;4.97
22269;BMP280;11303;50.772;19.670;2024-03-29T01:54:40;97610.91;;;4.97
22269;BMP280;11303;50.772;19.670;2024-03-29T01:56:40;97611.97;;;4.96
22269;BMP280;11303;50.772;19.670;2024-03-29T01:58:42;97617.84;;;4.97
22269;BMP280;11303;50.772;19.670;2024-03-29T02:00:53;97623.78;;;4.97
22269;BMP280;11303;50.772;19.670;2024-03-29T02:02:54;97622.69;;;4.98
22269;BMP280;11303;50.772;19.670;2024-03-29T02:04:55;97627.31;;;4.92
22269;BMP280;11303;50.772;19.670;2024-03-29T02:06:56;97630.63;;;4.93
22269;BMP280;11303;50.772;19.670;2024-03-29T02:08:56;97636.09;;;4.91
22269;BMP280;11303;50.772;19.670;2024-03-29T02:10:57;97641.91;;;4.88
22269;BMP280;11303;50.772;19.670;2024-03-29T02:12:58;97650.69;;;4.87
22269;BMP280;11303;50.772;19.670;2024-03-29T02:14:59;97653.25;;;4.87
22269;BMP280;11303;50.772;19.670;2024-03-29T02:17:00;97659.06;;;4.84
22269;BMP280;11303;50.772;19.670;2024-03-29T02:19:00;97665.19;;;4.80
22269;BMP280;11303;50.772;19.670;2024-03-29T02:21:01;97670.22;;;4.76
22269;BMP280;11303;50.772;19.670;2024-03-29T02:23:06;97679.66;;;4.72
22269;BMP280;11303;50.772;19.670;2024-03-29T02:25:08;97679.66;;;4.72
22269;BMP280;11303;50.772;19.670;2024-03-29T02:27:09;97691.47;;;4.73
22269;BMP280;11303;50.772;19.670;2024-03-29T02:29:09;97700.38;;;4.75
22269;BMP280;11303;50.772;19.670;2024-03-29T02:31:10;97702.72;;;4.68
22269;BMP280;11303;50.772;19.670;2024-03-29T02:33:11;97702.28;;;4.66
22269;BMP280;11303;50.772;19.670;2024-03-29T02:35:12;97702.94;;;4.63
22269;BMP280;11303;50.772;19.670;2024-03-29T02:37:12;97718.56;;;4.58
22269;BMP280;11303;50.772;19.670;2024-03-29T02:39:13;97723.63;;;4.54
22269;BMP280;11303;50.772;19.670;2024-03-29T02:41:13;97732.72;;;4.52
22269;BMP280;11303;50.772;19.670;2024-03-29T02:43:14;97737.75;;;4.48
22269;BMP280;11303;50.772;19.670;2024-03-29T02:45:15;97741.25;;;4.44
22269;BMP280;11303;50.772;19.670;2024-03-29T02:47:16;97730.13;;;4.39
22269;BMP280;11303;50.772;19.670;2024-03-29T02:49:17;97737.72;;;4.36
22269;BMP280;11303;50.772;19.670;2024-03-29T02:51:17;97730.31;;;4.34
22269;BMP280;11303;50.772;19.670;2024-03-29T02:53:18;97730.84;;;4.28
22269;BMP280;11303;50.772;19.670;2024-03-29T02:55:18;97732.44;;;4.20
22269;BMP280;11303;50.772;19.670;2024-03-29T02:57:19;97741.09;;;4.15
22269;BMP280;11303;50.772;19.670;2024-03-29T02:59:20;97743.53;;;4.12
22269;BMP280;11303;50.772;19.670;2024-03-29T03:01:20;97747.50;;;4.09
22269;BMP280;11303;50.772;19.670;2024-03-29T03:03:26;97752.63;;;4.09
22269;BMP280;11303;50.772;19.670;2024-03-29T03:05:26;97750.22;;;4.04
22269;BMP280;11303;50.772;19.670;2024-03-29T03:07:27;97761.28;;;4.05
22269;BMP280;11303;50.772;19.670;2024-03-29T03:09:46;97760.66;;;4.08
22269;BMP280;11303;50.772;19.670;2024-03-29T03:12:06;97761.28;;;4.05
22269;BMP280;11303;50.772;19.670;2024-03-29T03:14:06;97765.88;;;3.99
22269;BMP280;11303;50.772;19.670;2024-03-29T03:16:07;97776.03;;;3.95
22269;BMP280;11303;50.772;19.670;2024-03-29T03:18:07;97785.91;;;3.93
22269;BMP280;11303;50.772;19.670;2024-03-29T03:20:08;97782.13;;;3.91
22269;BMP280;11303;50.772;19.670;2024-03-29T03:22:09;97797.53;;;3.91
22269;BMP280;11303;50.772;19.670;2024-03-29T03:24:10;97789.09;;;3.90
22269;BMP280;11303;50.772;19.670;2024-03-29T03:26:12;97793.94;;;3.83
22269;BMP280;11303;50.772;19.670;2024-03-29T03:28:12;97796.22;;;3.85
22269;BMP280;11303;50.772;19.670;2024-03-29T03:30:13;97794.88;;;3.78
22269;BMP280;11303;50.772;19.670;2024-03-29T03:32:14;97801.53;;;3.79
22269;BMP280;11303;50.772;19.670;2024-03-29T03:34:15;97809.13;;;3.76
22269;BMP280;11303;50.772;19.670;2024-03-29T03:36:15;97806.88;;;3.74
22269;BMP280;11303;50.772;19.670;2024-03-29T03:38:16;97803.53;;;3.74
22269;BMP280;11303;50.772;19.670;2024-03-29T03:40:16;97793.28;;;3.74
22269;BMP280;11303;50.772;19.670;2024-03-29T03:42:17;97795.41;;;3.72
22269;BMP280;11303;50.772;19.670;2024-03-29T03:44:18;97808.56;;;3.70
22269;BMP280;11303;50.772;19.670;2024-03-29T03:46:18;97813.69;;;3.70
22269;BMP280;11303;50.772;19.670;2024-03-29T03:48:19;97814.44;;;3.71
22269;BMP280;11303;50.772;19.670;2024-03-29T03:50:20;97817.19;;;3.66
22269;BMP280;11303;50.772;19.670;2024-03-29T03:52:20;97820.38;;;3.62
22269;BMP280;11303;50.772;19.670;2024-03-29T03:54:21;97825.22;;;3.64
22269;BMP280;11303;50.772;19.670;2024-03-29T03:56:22;97825.53;;;3.62
22269;BMP280;11303;50.772;19.670;2024-03-29T03:58:23;97827.50;;;3.57
22269;BMP280;11303;50.772;19.670;2024-03-29T04:00:23;97821.50;;;3.53
22269;BMP280;11303;50.772;19.670;2024-03-29T04:02:24;97816.22;;;3.49
22269;BMP280;11303;50.772;19.670;2024-03-29T04:04:24;97822.28;;;3.44
22269;BMP280;11303;50.772;19.670;2024-03-29T04:06:25;97816.41;;;3.44
22269;BMP280;11303;50.772;19.670;2024-03-29T04:08:26;97822.28;;;3.44
22269;BMP280;11303;50.772;19.670;2024-03-29T04:10:26;97820.16;;;3.46
22269;BMP280;11303;50.772;19.670;2024-03-29T04:12:27;97820.16;;;3.46
22269;BMP280;11303;50.772;19.670;2024-03-29T04:14:27;97817.13;;;3.44
22269;BMP280;11303;50.772;19.670;2024-03-29T04:16:28;97819.88;;;3.39
22269;BMP280;11303;50.772;19.670;2024-03-29T04:18:28;97827.91;;;3.38
22269;BMP280;11303;50.772;19.670;2024-03-29T04:20:29;97806.56;;;3.37
22269;BMP280;11303;50.772;19.670;2024-03-29T04:22:30;97805.22;;;3.40
22269;BMP280;11303;50.772;19.670;2024-03-29T04:24:31;97803.88;;;3.34
22269;BMP280;11303;50.772;19.670;2024-03-29T04:26:31;97816.28;;;3.32
22269;BMP280;11303;50.772;19.670;2024-03-29T04:28:32;97806.31;;;3.30
22269;BMP280;11303;50.772;19.670;2024-03-29T04:30:32;97806.94;;;3.27
22269;BMP280;11303;50.772;19.670;2024-03-29T04:32:33;97812.41;;;3.25
22269;BMP280;11303;50.772;19.670;2024-03-29T04:34:34;97801.97;;;3.22
22269;BMP280;11303;50.772;19.670;2024-03-29T04:36:34;97809.97;;;3.20
22269;BMP280;11303;50.772;19.670;2024-03-29T04:38:35;97811.66;;;3.16
22269;BMP280;11303;50.772;19.670;2024-03-29T04:40:35;97811.19;;;3.14
22269;BMP280;11303;50.772;19.670;2024-03-29T04:42:36;97816.31;;;3.14
22269;BMP280;11303;50.772;19.670;2024-03-29T04:44:37;97818.38;;;3.30
22269;BMP280;11303;50.772;19.670;2024-03-29T04:46:38;97816.88;;;3.67
22269;BMP280;11303;50.772;19.670;2024-03-29T04:48:39;97815.69;;;4.15
22269;BMP280;11303;50.772;19.670;2024-03-29T04:50:41;97833.81;;;4.40
22269;BMP280;11303;50.772;19.670;2024-03-29T04:52:42;97826.22;;;4.77
22269;BMP280;11303;50.772;19.670;2024-03-29T04:54:42;97838.50;;;5.17
22269;BMP280;11303;50.772;19.670;2024-03-29T04:56:44;97835.19;;;5.41
22269;BMP280;11303;50.772;19.670;2024-03-29T04:58:44;97840.22;;;5.75
22269;BMP280;11303;50.772;19.670;2024-03-29T05:00:46;97848.38;;;6.17
22269;BMP280;11303;50.772;19.670;2024-03-29T05:02:47;97850.44;;;6.52
22269;BMP280;11303;50.772;19.670;2024-03-29T05:04:47;97866.19;;;6.79
22269;BMP280;11303;50.772;19.670;2024-03-29T05:06:48;97873.88;;;7.07
22269;BMP280;11303;50.772;19.670;2024-03-29T05:08:48;97869.22;;;7.29
22269;BMP280;11303;50.772;19.670;2024-03-29T05:10:49;97878.97;;;7.51
22269;BMP280;11303;50.772;19.670;2024-03-29T05:12:50;97880.94;;;7.74
22269;BMP280;11303;50.772;19.670;2024-03-29T05:14:51;97883.88;;;8.11
22269;BMP280;11303;50.772;19.670;2024-03-29T05:16:52;97884.34;;;8.36
22269;BMP280;11303;50.772;19.670;2024-03-29T05:18:53;97901.47;;;8.64
22269;BMP280;11303;50.772;19.670;2024-03-29T05:20:53;97905.44;;;9.01
22269;BMP280;11303;50.772;19.670;2024-03-29T05:22:54;97915.31;;;9.41
22269;BMP280;11303;50.772;19.670;2024-03-29T05:24:54;97916.81;;;9.73
22269;BMP280;11303;50.772;19.670;2024-03-29T05:26:55;97913.97;;;10.12
22269;BMP280;11303;50.772;19.670;2024-03-29T05:28:57;97927.16;;;10.33
22269;BMP280;11303;50.772;19.670;2024-03-29T05:31:12;97932.94;;;10.57
22269;BMP280;11303;50.772;19.670;2024-03-29T05:33:14;97926.53;;;10.84
22269;BMP280;11303;50.772;19.670;2024-03-29T05:35:14;97932.16;;;10.90
22269;BMP280;11303;50.772;19.670;2024-03-29T05:37:15;97933.53;;;11.25
22269;BMP280;11303;50.772;19.670;2024-03-29T05:39:18;97929.91;;;11.40
22269;BMP280;11303;50.772;19.670;2024-03-29T05:41:19;97940.41;;;11.58
22269;BMP280;11303;50.772;19.670;2024-03-29T05:43:20;97933.84;;;11.82
22269;BMP280;11303;50.772;19.670;2024-03-29T05:45:27;97932.88;;;12.19
22269;BMP280;11303;50.772;19.670;2024-03-29T05:47:27;97942.59;;;12.51
22269;BMP280;11303;50.772;19.670;2024-03-29T05:49:28;97950.44;;;12.69
22269;BMP280;11303;50.772;19.670;2024-03-29T05:51:28;97951.94;;;12.84
22269;BMP280;11303;50.772;19.670;2024-03-29T05:53:29;97967.22;;;12.90
22269;BMP280;11303;50.772;19.670;2024-03-29T05:55:30;97963.13;;;12.99
22269;BMP280;11303;50.772;19.670;2024-03-29T05:57:30;97963.84;;;13.00
22269;BMP280;11303;50.772;19.670;2024-03-29T05:59:35;97959.38;;;13.22
22269;BMP280;11303;50.772;19.670;2024-03-29T06:01:35;97959.34;;;13.43
22269;BMP280;11303;50.772;19.670;2024-03-29T06:03:36;97952.56;;;13.53
22269;BMP280;11303;50.772;19.670;2024-03-29T06:05:39;97949.53;;;13.80
22269;BMP280;11303;50.772;19.670;2024-03-29T06:07:40;97946.91;;;13.80
22269;BMP280;11303;50.772;19.670;2024-03-29T06:09:40;97956.84;;;14.06
22269;BMP280;11303;50.772;19.670;2024-03-29T06:11:41;97957.13;;;14.26
22269;BMP280;11303;50.772;19.670;2024-03-29T06:13:42;97950.56;;;14.56
22269;BMP280;11303;50.772;19.670;2024-03-29T06:15:54;97963.69;;;14.49
22269;BMP280;11303;50.772;19.670;2024-03-29T06:18:14;97967.47;;;14.44
22269;BMP280;11303;50.772;19.670;2024-03-29T06:20:16;97972.94;;;14.61
22269;BMP280;11303;50.772;19.670;2024-03-29T06:22:17;97973.84;;;14.88
22269;BMP280;11303;50.772;19.670;2024-03-29T06:24:18;97972.59;;;15.04
22269;BMP280;11303;50.772;19.670;2024-03-29T06:26:19;97973.19;;;15.57
22269;BMP280;11303;50.772;19.670;2024-03-29T06:28:21;97976.13;;;15.93
22269;BMP280;11303;50.772;19.670;2024-03-29T06:30:21;97977.31;;;16.16
22269;BMP280;11303;50.772;19.670;2024-03-29T06:32:22;97978.88;;;16.09
22269;BMP280;11303;50.772;19.670;2024-03-29T06:34:22;97983.69;;;16.15
22269;BMP280;11303;50.772;19.670;2024-03-29T06:36:24;97990.59;;;16.56
22269;BMP280;11303;50.772;19.670;2024-03-29T06:38:25;97995.50;;;16.54
22269;BMP280;11303;50.772;19.670;2024-03-29T06:40:26;97999.19;;;16.56
22269;BMP280;11303;50.772;19.670;2024-03-29T06:42:27;97997.81;;;16.95
22269;BMP280;11303;50.772;19.670;2024-03-29T06:44:27;98000.63;;;17.48
22269;BMP280;11303;50.772;19.670;2024-03-29T06:46:28;98005.06;;;17.51
22269;BMP280;11303;50.772;19.670;2024-03-29T06:48:29;98009.56;;;17.50
22269;BMP280;11303;50.772;19.670;2024-03-29T06:50:31;98004.78;;;17.25
22269;BMP280;11303;50.772;19.670;2024-03-29T06:52:32;97999.41;;;17.52
22269;BMP280;11303;50.772;19.670;2024-03-29T06:54:32;97999.34;;;17.92
22269;BMP280;11303;50.772;19.670;2024-03-29T06:56:33;97988.13;;;18.25
22269;BMP280;11303;50.772;19.670;2024-03-29T06:58:34;97981.47;;;18.36
22269;BMP280;11303;50.772;19.670;2024-03-29T07:00:35;97982.06;;;18.73
22269;BMP280;11303;50.772;19.670;2024-03-29T07:02:35;97977.59;;;18.87
22269;BMP280;11303;50.772;19.670;2024-03-29T07:04:36;97983.38;;;18.81
22269;BMP280;11303;50.772;19.670;2024-03-29T07:06:36;97978.88;;;18.95
22269;BMP280;11303;50.772;19.670;2024-03-29T07:08:39;97968.88;;;18.90
22269;BMP280;11303;50.772;19.670;2024-03-29T07:10:39;97968.78;;;18.93
22269;BMP280;11303;50.772;19.670;2024-03-29T07:12:40;97956.78;;;19.05
22269;BMP280;11303;50.772;19.670;2024-03-29T07:14:40;97955.16;;;18.95
22269;BMP280;11303;50.772;19.670;2024-03-29T07:16:42;97952.09;;;19.13
22269;BMP280;11303;50.772;19.670;2024-03-29T07:18:42;97949.97;;;19.20
22269;BMP280;11303;50.772;19.670;2024-03-29T07:20:43;97945.97;;;19.16
22269;BMP280;11303;50.772;19.670;2024-03-29T07:22:44;97940.09;;;19.37
22269;BMP280;11303;50.772;19.670;2024-03-29T07:24:48;97945.81;;;19.49
22269;BMP280;11303;50.772;19.670;2024-03-29T07:26:49;97956.28;;;19.10
22269;BMP280;11303;50.772;19.670;2024-03-29T07:28:49;97960.97;;;18.90
22269;BMP280;11303;50.772;19.670;2024-03-29T07:30:50;97951.78;;;19.23
22269;BMP280;11303;50.772;19.670;2024-03-29T07:32:50;97954.22;;;19.31
22269;BMP280;11303;50.772;19.670;2024-03-29T07:34:51;97955.69;;;19.32
22269;BMP280;11303;50.772;19.670;2024-03-29T07:36:52;97961.16;;;19.25
22269;BMP280;11303;50.772;19.670;2024-03-29T07:38:52;97965.72;;;19.37
22269;BMP280;11303;50.772;19.670;2024-03-29T07:40:53;97963.09;;;19.37
22269;BMP280;11303;50.772;19.670;2024-03-29T07:42:55;97964.78;;;19.69
22269;BMP280;11303;50.772;19.670;2024-03-29T07:44:56;97963.09;;;19.88
22269;BMP280;11303;50.772;19.670;2024-03-29T07:46:56;97976.06;;;19.82
22269;BMP280;11303;50.772;19.670;2024-03-29T07:48:57;97977.09;;;20.11
22269;BMP280;11303;50.772;19.670;2024-03-29T07:50:57;97977.47;;;20.57
22269;BMP280;11303;50.772;19.670;2024-03-29T07:52:58;97970.25;;;20.70
22269;BMP280;11303;50.772;19.670;2024-03-29T07:54:58;97966.13;;;20.69
22269;BMP280;11303;50.772;19.670;2024-03-29T07:57:00;97968.69;;;20.60
22269;BMP280;11303;50.772;19.670;2024-03-29T07:59:01;97971.63;;;20.75
22269;BMP280;11303;50.772;19.670;2024-03-29T08:01:02;97979.81;;;21.21
22269;BMP280;11303;50.772;19.670;2024-03-29T08:03:02;97977.88;;;20.90
22269;BMP280;11303;50.772;19.670;2024-03-29T08:05:04;97969.19;;;20.45
22269;BMP280;11303;50.772;19.670;2024-03-29T08:07:05;97975.75;;;20.41
22269;BMP280;11303;50.772;19.670;2024-03-29T08:09:05;97973.44;;;20.30
22269;BMP280;11303;50.772;19.670;2024-03-29T08:11:06;97974.94;;;19.71
22269;BMP280;11303;50.772;19.670;2024-03-29T08:13:07;97978.72;;;19.70
22269;BMP280;11303;50.772;19.670;2024-03-29T08:15:09;97977.66;;;19.93
22269;BMP280;11303;50.772;19.670;2024-03-29T08:17:09;97981.97;;;19.74
22269;BMP280;11303;50.772;19.670;2024-03-29T08:19:10;97983.63;;;19.55
22269;BMP280;11303;50.772;19.670;2024-03-29T08:21:11;97991.03;;;19.85
22269;BMP280;11303;50.772;19.670;2024-03-29T08:23:14;97988.63;;;19.91
22269;BMP280;11303;50.772;19.670;2024-03-29T08:25:15;97990.63;;;19.74
22269;BMP280;11303;50.772;19.670;2024-03-29T08:27:16;97986.81;;;19.88
22269;BMP280;11303;50.772;19.670;2024-03-29T08:29:17;98002.63;;;20.01
22269;BMP280;11303;50.772;19.670;2024-03-29T08:31:17;98005.59;;;20.03
22269;BMP280;11303;50.772;19.670;2024-03-29T08:33:19;98002.94;;;20.03
22269;BMP280;11303;50.772;19.670;2024-03-29T08:35:20;97999.78;;;19.82
22269;BMP280;11303;50.772;19.670;2024-03-29T08:37:20;97999.03;;;19.95
22269;BMP280;11303;50.772;19.670;2024-03-29T08:39:21;98004.66;;;19.71
22269;BMP280;11303;50.772;19.670;2024-03-29T08:41:21;98001.28;;;19.71
22269;BMP280;11303;50.772;19.670;2024-03-29T08:43:22;97989.66;;;19.00
22269;BMP280;11303;50.772;19.670;2024-03-29T08:45:23;97993.69;;;18.59
22269;BMP280;11303;50.772;19.670;2024-03-29T08:47:24;97998.53;;;18.90
22269;BMP280;11303;50.772;19.670;2024-03-29T08:49:25;97983.25;;;19.14
22269;BMP280;11303;50.772;19.670;2024-03-29T08:51:25;97990.34;;;19.17
22269;BMP280;11303;50.772;19.670;2024-03-29T08:53:26;97992.66;;;19.15
22269;BMP280;11303;50.772;19.670;2024-03-29T08:55:27;97998.78;;;19.25
22269;BMP280;11303;50.772;19.670;2024-03-29T08:57:28;98001.41;;;19.25
22269;BMP280;11303;50.772;19.670;2024-03-29T08:59:28;97996.69;;;19.33
22269;BMP280;11303;50.772;19.670;2024-03-29T09:01:31;98001.78;;;19.78
22269;BMP280;11303;50.772;19.670;2024-03-29T09:03:31;98005.78;;;20.08
22269;BMP280;11303;50.772;19.670;2024-03-29T09:05:32;98000.81;;;20.23
22269;BMP280;11303;50.772;19.670;2024-03-29T09:07:32;98003.50;;;19.98
22269;BMP280;11303;50.772;19.670;2024-03-29T09:09:33;98001.06;;;19.52
22269;BMP280;11303;50.772;19.670;2024-03-29T09:11:34;98006.84;;;19.18
22269;BMP280;11303;50.772;19.670;2024-03-29T09:13:43;98023.22;;;18.96
22269;BMP280;11303;50.772;19.670;2024-03-29T09:15:44;98013.78;;;18.83
22269;BMP280;11303;50.772;19.670;2024-03-29T09:17:45;98021.22;;;18.71
22269;BMP280;11303;50.772;19.670;2024-03-29T09:19:46;98020.25;;;18.49
22269;BMP280;11303;50.772;19.670;2024-03-29T09:21:47;98011.88;;;18.54
22269;BMP280;11303;50.772;19.670;2024-03-29T09:23:47;98024.16;;;18.90
22269;BMP280;11303;50.772;19.670;2024-03-29T09:25:49;98016.56;;;19.08
22269;BMP280;11303;50.772;19.670;2024-03-29T09:27:50;98011.81;;;18.87
22269;BMP280;11303;50.772;19.670;2024-03-29T09:29:50;98008.44;;;18.86
22269;BMP280;11303;50.772;19.670;2024-03-29T09:31:51;98017.81;;;19.04
22269;BMP280;11303;50.772;19.670;2024-03-29T09:33:52;98012.22;;;19.14
22269;BMP280;11303;50.772;19.670;2024-03-29T09:35:58;98016.50;;;19.37
22269;BMP280;11303;50.772;19.670;2024-03-29T09:37:59;98004.72;;;19.55
22269;BMP280;11303;50.772;19.670;2024-03-29T09:40:00;98015.31;;;19.80
22269;BMP280;11303;50.772;19.670;2024-03-29T09:42:02;98013.38;;;20.19
22269;BMP280;11303;50.772;19.670;2024-03-29T09:44:04;98003.59;;;20.55
22269;BMP280;11303;50.772;19.670;2024-03-29T09:46:08;97997.13;;;20.56
22269;BMP280;11303;50.772;19.670;2024-03-29T09:48:09;98008.59;;;20.27
22269;BMP280;11303;50.772;19.670;2024-03-29T09:50:10;97993.03;;;19.81
22269;BMP280;11303;50.772;19.670;2024-03-29T09:52:12;98000.28;;;19.52
22269;BMP280;11303;50.772;19.670;2024-03-29T09:54:13;98001.16;;;19.49
22269;BMP280;11303;50.772;19.670;2024-03-29T09:56:16;97998.22;;;19.98
22269;BMP280;11303;50.772;19.670;2024-03-29T09:58:17;97997.84;;;20.34
22269;BMP280;11303;50.772;19.670;2024-03-29T10:00:18;97986.66;;;20.87
22269;BMP280;11303;50.772;19.670;2024-03-29T10:02:20;97987.47;;;20.97
22269;BMP280;11303;50.772;19.670;2024-03-29T10:04:23;97984.75;;;20.87
22269;BMP280;11303;50.772;19.670;2024-03-29T10:06:24;97992.81;;;20.49
22269;BMP280;11303;50.772;19.670;2024-03-29T10:08:29;97990.84;;;20.40
22269;BMP280;11303;50.772;19.670;2024-03-29T10:10:32;97993.31;;;20.57
22269;BMP280;11303;50.772;19.670;2024-03-29T10:12:33;97998.09;;;20.84
22269;BMP280;11303;50.772;19.670;2024-03-29T10:14:44;97998.69;;;20.66
22269;BMP280;11303;50.772;19.670;2024-03-29T10:16:51;98000.13;;;20.45
22269;BMP280;11303;50.772;19.670;2024-03-29T10:18:52;98010.47;;;20.39
22269;BMP280;11303;50.772;19.670;2024-03-29T10:21:06;98004.09;;;20.62
22269;BMP280;11303;50.772;19.670;2024-03-29T10:23:07;98004.91;;;20.72
22269;BMP280;11303;50.772;19.670;2024-03-29T10:25:08;98011.78;;;20.69
22269;BMP280;11303;50.772;19.670;2024-03-29T10:27:09;98020.28;;;20.73
22269;BMP280;11303;50.772;19.670;2024-03-29T10:29:10;98003.59;;;20.77
22269;BMP280;11303;50.772;19.670;2024-03-29T10:31:11;98017.69;;;20.26
22269;BMP280;11303;50.772;19.670;2024-03-29T10:33:13;98009.75;;;20.39
22269;BMP280;11303;50.772;19.670;2024-03-29T10:35:13;98006.88;;;20.11
22269;BMP280;11303;50.772;19.670;2024-03-29T10:37:14;98005.81;;;19.70
22269;BMP280;11303;50.772;19.670;2024-03-29T10:39:16;98008.03;;;19.72
22269;BMP280;11303;50.772;19.670;2024-03-29T10:41:17;98011.16;;;19.92
22269;BMP280;11303;50.772;19.670;2024-03-29T10:43:19;98004.22;;;19.73
22269;BMP280;11303;50.772;19.670;2024-03-29T10:45:21;97999.00;;;20.07
22269;BMP280;11303;50.772;19.670;2024-03-29T10:47:23;97994.97;;;20.41
22269;BMP280;11303;50.772;19.670;2024-03-29T10:49:25;97992.50;;;20.47
22269;BMP280;11303;50.772;19.670;2024-03-29T10:51:27;97982.59;;;20.38
22269;BMP280;11303;50.772;19.670;2024-03-29T10:53:29;97980.81;;;20.48
22269;BMP280;11303;50.772;19.670;2024-03-29T10:55:29;97982.84;;;19.71
22269;BMP280;11303;50.772;19.670;2024-03-29T10:57:32;97992.69;;;19.41
22269;BMP280;11303;50.772;19.670;2024-03-29T10:59:44;97986.09;;;19.49
22269;BMP280;11303;50.772;19.670;2024-03-29T11:01:56;97995.56;;;20.11
22269;BMP280;11303;50.772;19.670;2024-03-29T11:04:09;97972.97;;;20.57
22269;BMP280;11303;50.772;19.670;2024-03-29T11:06:12;97970.34;;;20.44
22269;BMP280;11303;50.772;19.670;2024-03-29T11:08:19;97961.84;;;20.40
22269;BMP280;11303;50.772;19.670;2024-03-29T11:12:25;97958.75;;;19.69
22269;BMP280;11303;50.772;19.670;2024-03-29T11:14:31;97955.09;;;19.79
22269;BMP280;11303;50.772;19.670;2024-03-29T11:16:34;97935.84;;;20.04
22269;BMP280;11303;50.772;19.670;2024-03-29T11:18:38;97950.78;;;20.20
22269;BMP280;11303;50.772;19.670;2024-03-29T11:20:40;97952.38;;;20.17
22269;BMP280;11303;50.772;19.670;2024-03-29T11:22:43;97943.09;;;20.13
22269;BMP280;11303;50.772;19.670;2024-03-29T11:24:44;97944.22;;;19.90
22269;BMP280;11303;50.772;19.670;2024-03-29T11:26:47;97950.44;;;19.57
22269;BMP280;11303;50.772;19.670;2024-03-29T11:28:50;97949.91;;;19.62
22269;BMP280;11303;50.772;19.670;2024-03-29T11:30:50;97950.97;;;19.78
22269;BMP280;11303;50.772;19.670;2024-03-29T11:32:52;97947.34;;;20.10
22269;BMP280;11303;50.772;19.670;2024-03-29T11:34:56;97937.09;;;20.25
22269;BMP280;11303;50.772;19.670;2024-03-29T11:37:06;97942.00;;;20.23